sensor_id;sensor_type;location;lat;lon;timestamp;temperature;humidity
33149;DHT22;19506;51.040;3.856;2022-11-15T14:37:48;17.10;99.90
33149;DHT22;19506;51.040;3.856;2022-11-15T14:40:19;17.00;99.90
33149;DHT22;19506;51.040;3.856;2022-11-15T14:42:47;16.90;99.90
33149;DHT22;19506;51.040;3.856;2022-11-15T14:45:20;16.70;99.90
33149;DHT22;19506;51.040;3.856;2022-11-15T14:47:47;16.50;99.90
33149;DHT22;19506;51.040;3.856;2022-11-15T14:50:14;16.40;99.90
33149;DHT22;19506;51.040;3.856;2022-11-15T14:52:41;16.40;99.90
33149;DHT22;19506;51.040;3.856;2022-11-15T14:57:43;16.40;99.90
33149;DHT22;19506;51.040;3.856;2022-11-15T15:00:09;16.40;99.90
33149;DHT22;19506;51.040;3.856;2022-11-15T15:02:35;16.40;99.90
33149;DHT22;19506;51.040;3.856;2022-11-15T15:05:07;16.60;99.90
33149;DHT22;19506;51.040;3.856;2022-11-15T15:07:34;16.70;99.90
33149;DHT22;19506;51.040;3.856;2022-11-15T15:10:00;16.80;99.90
33149;DHT22;19506;51.040;3.856;2022-11-15T15:12:26;16.90;99.90
33149;DHT22;19506;51.040;3.856;2022-11-15T15:14:51;17.00;99.90
33149;DHT22;19506;51.040;3.856;2022-11-15T15:17:17;17.10;99.90
33149;DHT22;19506;51.040;3.856;2022-11-15T15:19:43;17.10;99.90
33149;DHT22;19506;51.040;3.856;2022-11-15T15:22:18;17.30;99.90
33149;DHT22;19506;51.040;3.856;2022-11-15T15:24:45;17.30;99.90
33149;DHT22;19506;51.040;3.856;2022-11-15T15:27:12;17.40;99.90
33149;DHT22;19506;51.040;3.856;2022-11-15T15:29:37;17.40;99.90
33149;DHT22;19506;51.040;3.856;2022-11-15T15:32:04;17.40;99.90
33149;DHT22;19506;51.040;3.856;2022-11-15T15:34:30;17.50;99.90
33149;DHT22;19506;51.040;3.856;2022-11-15T15:37:22;17.60;99.90
33149;DHT22;19506;51.040;3.856;2022-11-15T15:39:55;17.70;99.90
33149;DHT22;19506;51.040;3.856;2022-11-15T15:42:21;17.80;99.90
33149;DHT22;19506;51.040;3.856;2022-11-15T15:44:48;18.00;99.90
33149;DHT22;19506;51.040;3.856;2022-11-15T15:47:17;18.10;99.90
33149;DHT22;19506;51.040;3.856;2022-11-15T15:49:43;18.20;99.90
33149;DHT22;19506;51.040;3.856;2022-11-15T15:52:09;18.20;99.90
33149;DHT22;19506;51.040;3.856;2022-11-15T15:54:35;18.30;99.90
33149;DHT22;19506;51.040;3.856;2022-11-15T15:57:00;18.30;99.90
33149;DHT22;19506;51.040;3.856;2022-11-15T15:59:26;18.30;99.90
33149;DHT22;19506;51.040;3.856;2022-11-15T16:01:52;18.30;99.90
33149;DHT22;19506;51.040;3.856;2022-11-15T16:04:17;18.40;99.90
33149;DHT22;19506;51.040;3.856;2022-11-15T16:06:44;18.40;99.90
33149;DHT22;19506;51.040;3.856;2022-11-15T16:09:17;18.40;99.90
33149;DHT22;19506;51.040;3.856;2022-11-15T16:11:46;18.40;99.90
33149;DHT22;19506;51.040;3.856;2022-11-15T16:14:12;18.40;99.90
33149;DHT22;19506;51.040;3.856;2022-11-15T16:16:38;18.40;99.90
33149;DHT22;19506;51.040;3.856;2022-11-15T16:19:04;18.40;99.90
33149;DHT22;19506;51.040;3.856;2022-11-15T16:21:30;18.40;99.90
33149;DHT22;19506;51.040;3.856;2022-11-15T16:23:56;18.50;99.90
33149;DHT22;19506;51.040;3.856;2022-11-15T16:26:25;18.50;99.90
33149;DHT22;19506;51.040;3.856;2022-11-15T16:28:51;18.50;99.90
33149;DHT22;19506;51.040;3.856;2022-11-15T16:31:17;18.50;99.90
33149;DHT22;19506;51.040;3.856;2022-11-15T16:33:45;18.50;99.90
33149;DHT22;19506;51.040;3.856;2022-11-15T16:36:25;18.50;99.90
33149;DHT22;19506;51.040;3.856;2022-11-15T16:38:51;18.60;99.90
33149;DHT22;19506;51.040;3.856;2022-11-15T16:41:18;18.60;99.90
33149;DHT22;19506;51.040;3.856;2022-11-15T16:43:45;18.60;99.90
33149;DHT22;19506;51.040;3.856;2022-11-15T16:46:29;18.60;99.90
33149;DHT22;19506;51.040;3.856;2022-11-15T16:48:54;18.60;99.90
33149;DHT22;19506;51.040;3.856;2022-11-15T16:51:20;18.60;99.90
33149;DHT22;19506;51.040;3.856;2022-11-15T16:53:46;18.60;99.90
33149;DHT22;19506;51.040;3.856;2022-11-15T16:56:25;18.70;99.90
33149;DHT22;19506;51.040;3.856;2022-11-15T16:58:52;18.70;99.90
33149;DHT22;19506;51.040;3.856;2022-11-15T17:01:23;18.70;99.90
33149;DHT22;19506;51.040;3.856;2022-11-15T17:03:49;18.70;99.90
33149;DHT22;19506;51.040;3.856;2022-11-15T17:06:16;18.70;99.90
33149;DHT22;19506;51.040;3.856;2022-11-15T17:08:43;18.70;99.90
33149;DHT22;19506;51.040;3.856;2022-11-15T17:11:13;18.80;99.90
33149;DHT22;19506;51.040;3.856;2022-11-15T17:13:39;18.70;99.90
33149;DHT22;19506;51.040;3.856;2022-11-15T17:16:07;18.80;99.90
33149;DHT22;19506;51.040;3.856;2022-11-15T17:18:34;18.80;99.90
33149;DHT22;19506;51.040;3.856;2022-11-15T17:21:20;18.80;99.90
33149;DHT22;19506;51.040;3.856;2022-11-15T17:23:46;18.80;99.90
33149;DHT22;19506;51.040;3.856;2022-11-15T17:26:13;18.80;99.90
33149;DHT22;19506;51.040;3.856;2022-11-15T17:28:40;18.90;99.90
33149;DHT22;19506;51.040;3.856;2022-11-15T17:31:07;18.90;99.90
33149;DHT22;19506;51.040;3.856;2022-11-15T17:33:34;18.90;99.90
33149;DHT22;19506;51.040;3.856;2022-11-15T17:36:03;18.90;99.90
33149;DHT22;19506;51.040;3.856;2022-11-15T17:38:29;19.00;99.90
33149;DHT22;19506;51.040;3.856;2022-11-15T17:41:01;18.90;99.90
33149;DHT22;19506;51.040;3.856;2022-11-15T17:43:29;18.90;99.90
33149;DHT22;19506;51.040;3.856;2022-11-15T17:45:55;18.90;99.90
33149;DHT22;19506;51.040;3.856;2022-11-15T17:48:21;19.00;99.90
33149;DHT22;19506;51.040;3.856;2022-11-15T17:50:58;19.00;99.90
33149;DHT22;19506;51.040;3.856;2022-11-15T17:53:24;19.10;99.90
33149;DHT22;19506;51.040;3.856;2022-11-15T17:55:50;19.10;99.90
33149;DHT22;19506;51.040;3.856;2022-11-15T17:58:16;19.10;99.90
33149;DHT22;19506;51.040;3.856;2022-11-15T18:00:45;19.20;99.90
33149;DHT22;19506;51.040;3.856;2022-11-15T18:03:12;19.20;99.90
33149;DHT22;19506;51.040;3.856;2022-11-15T18:05:38;19.30;99.90
33149;DHT22;19506;51.040;3.856;2022-11-15T18:08:05;19.30;99.90
33149;DHT22;19506;51.040;3.856;2022-11-15T18:10:31;19.30;99.90
33149;DHT22;19506;51.040;3.856;2022-11-15T18:12:56;19.30;99.90
33149;DHT22;19506;51.040;3.856;2022-11-15T18:15:22;19.30;99.90
33149;DHT22;19506;51.040;3.856;2022-11-15T18:17:48;19.30;99.90
33149;DHT22;19506;51.040;3.856;2022-11-15T18:20:13;19.30;99.90
33149;DHT22;19506;51.040;3.856;2022-11-15T18:22:39;19.30;99.90
33149;DHT22;19506;51.040;3.856;2022-11-15T18:25:05;19.30;99.90
33149;DHT22;19506;51.040;3.856;2022-11-15T18:27:31;19.30;99.90
33149;DHT22;19506;51.040;3.856;2022-11-15T18:29:56;19.40;99.90
33149;DHT22;19506;51.040;3.856;2022-11-15T18:32:22;19.40;99.90
33149;DHT22;19506;51.040;3.856;2022-11-15T18:34:48;19.40;99.90
33149;DHT22;19506;51.040;3.856;2022-11-15T18:37:13;19.40;99.90
33149;DHT22;19506;51.040;3.856;2022-11-15T18:39:39;19.40;99.90
33149;DHT22;19506;51.040;3.856;2022-11-15T18:42:05;19.50;99.90
33149;DHT22;19506;51.040;3.856;2022-11-15T18:44:31;19.50;99.90
33149;DHT22;19506;51.040;3.856;2022-11-15T18:46:57;19.50;99.90
33149;DHT22;19506;51.040;3.856;2022-11-15T18:49:22;19.50;99.90
33149;DHT22;19506;51.040;3.856;2022-11-15T18:51:48;19.50;99.90
33149;DHT22;19506;51.040;3.856;2022-11-15T18:54:15;19.50;99.90
33149;DHT22;19506;51.040;3.856;2022-11-15T18:56:42;19.50;99.90
33149;DHT22;19506;51.040;3.856;2022-11-15T18:59:09;19.50;99.90
33149;DHT22;19506;51.040;3.856;2022-11-15T19:01:36;19.60;99.90
33149;DHT22;19506;51.040;3.856;2022-11-15T19:04:09;19.60;99.90
33149;DHT22;19506;51.040;3.856;2022-11-15T19:06:40;19.60;99.90
33149;DHT22;19506;51.040;3.856;2022-11-15T19:09:06;19.60;99.90
33149;DHT22;19506;51.040;3.856;2022-11-15T19:11:34;19.60;99.90
33149;DHT22;19506;51.040;3.856;2022-11-15T19:14:05;19.60;99.90
33149;DHT22;19506;51.040;3.856;2022-11-15T19:16:33;19.60;99.90
33149;DHT22;19506;51.040;3.856;2022-11-15T19:19:15;19.60;99.90
33149;DHT22;19506;51.040;3.856;2022-11-15T19:21:41;19.60;99.90
33149;DHT22;19506;51.040;3.856;2022-11-15T19:24:07;19.60;99.90
33149;DHT22;19506;51.040;3.856;2022-11-15T19:26:34;19.60;99.90
33149;DHT22;19506;51.040;3.856;2022-11-15T19:29:02;19.60;99.90
33149;DHT22;19506;51.040;3.856;2022-11-15T19:31:29;19.60;99.90
33149;DHT22;19506;51.040;3.856;2022-11-15T19:34:00;19.60;99.90
33149;DHT22;19506;51.040;3.856;2022-11-15T19:36:29;19.60;99.90
33149;DHT22;19506;51.040;3.856;2022-11-15T19:39:01;19.60;99.90
33149;DHT22;19506;51.040;3.856;2022-11-15T19:41:30;19.60;99.90
33149;DHT22;19506;51.040;3.856;2022-11-15T19:43:56;19.70;99.90
33149;DHT22;19506;51.040;3.856;2022-11-15T19:46:22;19.70;99.90
33149;DHT22;19506;51.040;3.856;2022-11-15T19:48:49;19.70;99.90
33149;DHT22;19506;51.040;3.856;2022-11-15T19:51:20;19.70;99.90
33149;DHT22;19506;51.040;3.856;2022-11-15T19:53:47;19.70;99.90
33149;DHT22;19506;51.040;3.856;2022-11-15T19:56:16;19.70;99.90
33149;DHT22;19506;51.040;3.856;2022-11-15T19:58:42;19.70;99.90
33149;DHT22;19506;51.040;3.856;2022-11-15T20:01:18;19.70;99.90
33149;DHT22;19506;51.040;3.856;2022-11-15T20:03:44;19.70;99.90
33149;DHT22;19506;51.040;3.856;2022-11-15T20:06:13;19.80;99.90
33149;DHT22;19506;51.040;3.856;2022-11-15T20:08:40;19.70;99.90
33149;DHT22;19506;51.040;3.856;2022-11-15T20:11:06;19.80;99.90
33149;DHT22;19506;51.040;3.856;2022-11-15T20:13:32;19.70;99.90
33149;DHT22;19506;51.040;3.856;2022-11-15T20:15:58;19.70;99.90
33149;DHT22;19506;51.040;3.856;2022-11-15T20:18:25;19.70;99.90
33149;DHT22;19506;51.040;3.856;2022-11-15T20:20:51;19.70;99.90
33149;DHT22;19506;51.040;3.856;2022-11-15T20:23:17;19.70;99.90
33149;DHT22;19506;51.040;3.856;2022-11-15T20:25:44;19.70;99.90
33149;DHT22;19506;51.040;3.856;2022-11-15T20:28:21;19.70;99.90
33149;DHT22;19506;51.040;3.856;2022-11-15T20:30:47;19.70;99.90
33149;DHT22;19506;51.040;3.856;2022-11-15T20:33:15;19.70;99.90
33149;DHT22;19506;51.040;3.856;2022-11-15T20:35:42;19.70;99.90
33149;DHT22;19506;51.040;3.856;2022-11-15T20:38:09;19.70;99.90
33149;DHT22;19506;51.040;3.856;2022-11-15T20:40:35;19.70;99.90
33149;DHT22;19506;51.040;3.856;2022-11-15T20:43:00;19.70;99.90
33149;DHT22;19506;51.040;3.856;2022-11-15T20:45:26;19.70;99.90
33149;DHT22;19506;51.040;3.856;2022-11-15T20:47:56;19.70;99.90
33149;DHT22;19506;51.040;3.856;2022-11-15T20:50:25;19.80;99.90
33149;DHT22;19506;51.040;3.856;2022-11-15T20:52:52;19.80;99.90
33149;DHT22;19506;51.040;3.856;2022-11-15T20:55:19;19.80;99.90
33149;DHT22;19506;51.040;3.856;2022-11-15T20:57:45;19.80;99.90
33149;DHT22;19506;51.040;3.856;2022-11-15T21:00:11;19.80;99.90
33149;DHT22;19506;51.040;3.856;2022-11-15T21:02:37;19.90;99.90
33149;DHT22;19506;51.040;3.856;2022-11-15T21:05:04;19.90;99.90
33149;DHT22;19506;51.040;3.856;2022-11-15T21:07:30;19.80;99.90
33149;DHT22;19506;51.040;3.856;2022-11-15T21:09:55;19.80;99.90
33149;DHT22;19506;51.040;3.856;2022-11-15T21:12:40;19.90;99.90
